sensor_id;sensor_type;location;lat;lon;timestamp;pressure;altitude;pressure_sealevel;temperature;humidity
31911;BME280;18457;52.432;16.914;2023-02-21T00:00:14;99567.41;;;9.97;91.31
31911;BME280;18457;52.432;16.914;2023-02-21T00:03:24;99566.40;;;9.95;91.48
31911;BME280;18457;52.432;16.914;2023-02-21T00:06:14;99579.08;;;9.94;92.63
31911;BME280;18457;52.432;16.914;2023-02-21T00:09:03;99578.29;;;9.91;93.83
31911;BME280;18457;52.432;16.914;2023-02-21T00:11:53;99573.18;;;9.87;93.45
31911;BME280;18457;52.432;16.914;2023-02-21T00:14:42;99574.23;;;9.88;93.52
31911;BME280;18457;52.432;16.914;2023-02-21T00:17:32;99576.36;;;9.89;92.92
31911;BME280;18457;52.432;16.914;2023-02-21T00:20:21;99578.85;;;9.90;92.45
31911;BME280;18457;52.432;16.914;2023-02-21T00:23:11;99583.10;;;9.92;92.21
31911;BME280;18457;52.432;16.914;2023-02-21T00:26:01;99576.20;;;9.94;92.06
31911;BME280;18457;52.432;16.914;2023-02-21T00:28:51;99585.09;;;9.87;94.74
31911;BME280;18457;52.432;16.914;2023-02-21T00:31:41;99584.59;;;9.80;97.18
31911;BME280;18457;52.432;16.914;2023-02-21T00:34:31;99582.59;;;9.76;97.68
31911;BME280;18457;52.432;16.914;2023-02-21T00:37:20;99576.88;;;9.68;98.82
31911;BME280;18457;52.432;16.914;2023-02-21T00:40:12;99579.92;;;9.64;99.67
31911;BME280;18457;52.432;16.914;2023-02-21T00:43:02;99583.23;;;9.57;100.00
31911;BME280;18457;52.432;16.914;2023-02-21T00:45:51;99585.48;;;9.49;100.00
31911;BME280;18457;52.432;16.914;2023-02-21T00:48:41;99589.91;;;9.40;100.00
31911;BME280;18457;52.432;16.914;2023-02-21T00:51:30;99593.10;;;9.36;100.00
31911;BME280;18457;52.432;16.914;2023-02-21T00:54:20;99593.08;;;9.31;100.00
31911;BME280;18457;52.432;16.914;2023-02-21T00:57:10;99590.73;;;9.31;100.00
31911;BME280;18457;52.432;16.914;2023-02-21T01:00:00;99601.09;;;9.29;100.00
31911;BME280;18457;52.432;16.914;2023-02-21T01:02:49;99588.49;;;9.28;100.00
31911;BME280;18457;52.432;16.914;2023-02-21T01:05:39;99601.02;;;9.25;100.00
31911;BME280;18457;52.432;16.914;2023-02-21T01:08:29;99581.02;;;9.25;100.00
31911;BME280;18457;52.432;16.914;2023-02-21T01:11:21;99581.67;;;9.22;100.00
31911;BME280;18457;52.432;16.914;2023-02-21T01:14:10;99574.86;;;9.15;100.00
31911;BME280;18457;52.432;16.914;2023-02-21T01:17:02;99569.14;;;9.14;100.00
31911;BME280;18457;52.432;16.914;2023-02-21T01:19:52;99563.02;;;9.13;100.00
31911;BME280;18457;52.432;16.914;2023-02-21T01:22:41;99570.04;;;9.08;100.00
31911;BME280;18457;52.432;16.914;2023-02-21T01:25:30;99568.48;;;9.06;100.00
31911;BME280;18457;52.432;16.914;2023-02-21T01:28:20;99569.41;;;9.05;100.00
31911;BME280;18457;52.432;16.914;2023-02-21T01:31:09;99567.54;;;9.07;100.00
31911;BME280;18457;52.432;16.914;2023-02-21T01:33:59;99565.67;;;9.10;100.00
31911;BME280;18457;52.432;16.914;2023-02-21T01:36:50;99568.42;;;9.08;100.00
31911;BME280;18457;52.432;16.914;2023-02-21T01:39:39;99563.75;;;9.08;100.00
31911;BME280;18457;52.432;16.914;2023-02-21T01:42:28;99555.75;;;9.10;100.00
31911;BME280;18457;52.432;16.914;2023-02-21T01:45:41;99556.00;;;9.08;100.00
31911;BME280;18457;52.432;16.914;2023-02-21T01:48:33;99552.71;;;9.04;100.00
31911;BME280;18457;52.432;16.914;2023-02-21T01:51:27;99560.85;;;9.08;100.00
31911;BME280;18457;52.432;16.914;2023-02-21T01:54:20;99564.77;;;9.09;100.00
31911;BME280;18457;52.432;16.914;2023-02-21T01:57:11;99562.77;;;9.10;100.00
31911;BME280;18457;52.432;16.914;2023-02-21T02:00:06;99571.59;;;9.10;100.00
31911;BME280;18457;52.432;16.914;2023-02-21T02:02:59;99569.17;;;9.12;100.00
31911;BME280;18457;52.432;16.914;2023-02-21T02:05:51;99566.99;;;9.13;100.00
31911;BME280;18457;52.432;16.914;2023-02-21T02:08:41;99559.35;;;9.15;100.00
31911;BME280;18457;52.432;16.914;2023-02-21T02:11:56;99561.86;;;9.16;100.00
31911;BME280;18457;52.432;16.914;2023-02-21T02:15:02;99562.73;;;9.17;100.00
31911;BME280;18457;52.432;16.914;2023-02-21T02:17:49;99559.69;;;9.16;100.00
31911;BME280;18457;52.432;16.914;2023-02-21T02:20:43;99555.88;;;9.17;100.00
31911;BME280;18457;52.432;16.914;2023-02-21T02:30:15;99551.58;;;9.22;100.00
31911;BME280;18457;52.432;16.914;2023-02-21T02:33:09;99552.07;;;9.23;100.00
31911;BME280;18457;52.432;16.914;2023-02-21T02:35:47;99556.34;;;9.25;100.00
31911;BME280;18457;52.432;16.914;2023-02-21T02:38:27;99553.15;;;9.28;100.00
31911;BME280;18457;52.432;16.914;2023-02-21T02:41:05;99550.66;;;9.27;100.00
31911;BME280;18457;52.432;16.914;2023-02-21T02:43:50;99552.61;;;9.28;100.00
31911;BME280;18457;52.432;16.914;2023-02-21T02:46:28;99555.09;;;9.30;100.00
31911;BME280;18457;52.432;16.914;2023-02-21T02:49:04;99558.86;;;9.30;100.00
31911;BME280;18457;52.432;16.914;2023-02-21T02:51:37;99566.09;;;9.29;100.00
31911;BME280;18457;52.432;16.914;2023-02-21T02:54:08;99570.05;;;9.30;100.00
31911;BME280;18457;52.432;16.914;2023-02-21T02:56:40;99575.38;;;9.32;100.00
31911;BME280;18457;52.432;16.914;2023-02-21T02:59:14;99574.64;;;9.32;100.00
31911;BME280;18457;52.432;16.914;2023-02-21T03:02:18;99582.64;;;9.31;100.00
31911;BME280;18457;52.432;16.914;2023-02-21T03:05:07;99582.83;;;9.31;100.00
31911;BME280;18457;52.432;16.914;2023-02-21T03:07:49;99585.75;;;9.35;99.99
31911;BME280;18457;52.432;16.914;2023-02-21T03:10:30;99594.66;;;9.32;100.00
31911;BME280;18457;52.432;16.914;2023-02-21T03:13:14;99593.60;;;9.32;100.00
31911;BME280;18457;52.432;16.914;2023-02-21T03:15:51;99597.26;;;9.30;99.97
31911;BME280;18457;52.432;16.914;2023-02-21T03:18:27;99594.96;;;9.29;100.00
31911;BME280;18457;52.432;16.914;2023-02-21T03:21:04;99589.63;;;9.27;100.00
31911;BME280;18457;52.432;16.914;2023-02-21T03:23:37;99591.10;;;9.26;100.00
31911;BME280;18457;52.432;16.914;2023-02-21T03:26:12;99603.09;;;9.17;100.00
31911;BME280;18457;52.432;16.914;2023-02-21T03:28:47;99605.09;;;9.05;100.00
31911;BME280;18457;52.432;16.914;2023-02-21T03:31:25;99596.02;;;8.89;100.00
31911;BME280;18457;52.432;16.914;2023-02-21T03:34:01;99603.34;;;8.80;100.00
31911;BME280;18457;52.432;16.914;2023-02-21T03:36:33;99589.79;;;8.69;100.00
31911;BME280;18457;52.432;16.914;2023-02-21T03:39:05;99596.44;;;8.64;100.00
31911;BME280;18457;52.432;16.914;2023-02-21T03:41:37;99601.95;;;8.60;100.00
31911;BME280;18457;52.432;16.914;2023-02-21T03:44:09;99602.45;;;8.55;100.00
31911;BME280;18457;52.432;16.914;2023-02-21T03:46:41;99603.77;;;8.53;100.00
31911;BME280;18457;52.432;16.914;2023-02-21T03:49:13;99607.80;;;8.50;100.00
31911;BME280;18457;52.432;16.914;2023-02-21T03:51:45;99615.23;;;8.48;100.00
31911;BME280;18457;52.432;16.914;2023-02-21T03:54:17;99617.08;;;8.47;100.00
31911;BME280;18457;52.432;16.914;2023-02-21T03:56:51;99615.75;;;8.49;100.00
31911;BME280;18457;52.432;16.914;2023-02-21T03:59:26;99609.73;;;8.46;100.00
31911;BME280;18457;52.432;16.914;2023-02-21T04:01:58;99622.61;;;8.42;100.00
31911;BME280;18457;52.432;16.914;2023-02-21T04:04:33;99603.07;;;8.46;100.00
31911;BME280;18457;52.432;16.914;2023-02-21T04:07:18;99605.80;;;8.45;99.84
31911;BME280;18457;52.432;16.914;2023-02-21T04:09:51;99599.94;;;8.42;98.42
31911;BME280;18457;52.432;16.914;2023-02-21T04:12:32;99599.84;;;8.39;97.61
31911;BME280;18457;52.432;16.914;2023-02-21T04:15:04;99597.51;;;8.39;96.03
31911;BME280;18457;52.432;16.914;2023-02-21T04:17:37;99607.46;;;8.31;96.34
31911;BME280;18457;52.432;16.914;2023-02-21T04:20:12;99604.14;;;8.27;95.43
31911;BME280;18457;52.432;16.914;2023-02-21T04:22:49;99609.17;;;8.28;94.55
31911;BME280;18457;52.432;16.914;2023-02-21T04:25:33;99606.38;;;8.24;94.93
31911;BME280;18457;52.432;16.914;2023-02-21T04:28:10;99611.05;;;8.24;94.58
31911;BME280;18457;52.432;16.914;2023-02-21T04:30:42;99606.54;;;8.24;94.15
31911;BME280;18457;52.432;16.914;2023-02-21T04:33:14;99611.30;;;8.21;93.54
31911;BME280;18457;52.432;16.914;2023-02-21T04:35:48;99620.48;;;8.21;92.91
31911;BME280;18457;52.432;16.914;2023-02-21T04:38:44;99619.31;;;8.24;91.99
31911;BME280;18457;52.432;16.914;2023-02-21T04:41:16;99615.52;;;8.25;91.20
31911;BME280;18457;52.432;16.914;2023-02-21T04:43:48;99609.94;;;8.25;90.73
31911;BME280;18457;52.432;16.914;2023-02-21T04:46:20;99610.09;;;8.27;90.36
31911;BME280;18457;52.432;16.914;2023-02-21T04:48:52;99616.59;;;8.25;89.96
31911;BME280;18457;52.432;16.914;2023-02-21T04:51:25;99621.41;;;8.28;90.00
31911;BME280;18457;52.432;16.914;2023-02-21T04:53:58;99618.54;;;8.27;89.98
31911;BME280;18457;52.432;16.914;2023-02-21T04:56:30;99630.69;;;8.22;89.17
31911;BME280;18457;52.432;16.914;2023-02-21T04:59:02;99625.79;;;8.25;89.18
31911;BME280;18457;52.432;16.914;2023-02-21T05:01:34;99632.32;;;8.23;89.65
31911;BME280;18457;52.432;16.914;2023-02-21T05:04:06;99620.84;;;8.21;89.08
31911;BME280;18457;52.432;16.914;2023-02-21T05:06:38;99635.13;;;8.25;88.93
31911;BME280;18457;52.432;16.914;2023-02-21T05:09:10;99638.48;;;8.28;88.80
31911;BME280;18457;52.432;16.914;2023-02-21T05:11:42;99634.79;;;8.24;88.69
31911;BME280;18457;52.432;16.914;2023-02-21T05:14:14;99624.21;;;8.22;88.52
31911;BME280;18457;52.432;16.914;2023-02-21T05:16:47;99628.73;;;8.22;87.67
31911;BME280;18457;52.432;16.914;2023-02-21T05:19:20;99618.63;;;8.23;86.88
31911;BME280;18457;52.432;16.914;2023-02-21T05:21:59;99616.13;;;8.22;86.94
31911;BME280;18457;52.432;16.914;2023-02-21T05:24:32;99614.61;;;8.18;86.79
31911;BME280;18457;52.432;16.914;2023-02-21T05:27:04;99614.98;;;8.18;86.25
31911;BME280;18457;52.432;16.914;2023-02-21T05:29:36;99613.27;;;8.15;86.13
31911;BME280;18457;52.432;16.914;2023-02-21T05:32:08;99620.00;;;8.12;85.02
31911;BME280;18457;52.432;16.914;2023-02-21T05:34:40;99625.91;;;8.14;84.45
31911;BME280;18457;52.432;16.914;2023-02-21T05:37:15;99639.81;;;8.11;84.50
31911;BME280;18457;52.432;16.914;2023-02-21T05:39:47;99649.02;;;8.10;83.98
31911;BME280;18457;52.432;16.914;2023-02-21T05:42:18;99656.82;;;8.07;83.48
31911;BME280;18457;52.432;16.914;2023-02-21T05:44:50;99648.20;;;8.06;83.37
31911;BME280;18457;52.432;16.914;2023-02-21T05:47:22;99649.30;;;8.06;83.15
31911;BME280;18457;52.432;16.914;2023-02-21T05:49:54;99663.02;;;8.05;83.16
31911;BME280;18457;52.432;16.914;2023-02-21T05:52:26;99669.25;;;8.06;83.21
31911;BME280;18457;52.432;16.914;2023-02-21T05:54:58;99669.42;;;8.07;83.21
31911;BME280;18457;52.432;16.914;2023-02-21T05:57:29;99671.39;;;8.07;83.45
31911;BME280;18457;52.432;16.914;2023-02-21T06:00:01;99672.08;;;8.09;83.79
31911;BME280;18457;52.432;16.914;2023-02-21T06:02:41;99674.38;;;8.10;83.81
31911;BME280;18457;52.432;16.914;2023-02-21T06:05:13;99676.16;;;8.11;83.50
31911;BME280;18457;52.432;16.914;2023-02-21T06:07:46;99685.66;;;8.12;83.24
31911;BME280;18457;52.432;16.914;2023-02-21T06:10:18;99678.30;;;8.11;82.82
31911;BME280;18457;52.432;16.914;2023-02-21T06:12:50;99684.66;;;8.09;82.55
31911;BME280;18457;52.432;16.914;2023-02-21T06:15:22;99686.05;;;8.11;82.38
31911;BME280;18457;52.432;16.914;2023-02-21T06:17:54;99697.23;;;8.10;82.00
31911;BME280;18457;52.432;16.914;2023-02-21T06:20:27;99700.42;;;8.11;81.50
31911;BME280;18457;52.432;16.914;2023-02-21T06:22:58;99699.70;;;8.12;80.96
31911;BME280;18457;52.432;16.914;2023-02-21T06:25:30;99703.68;;;8.10;80.41
31911;BME280;18457;52.432;16.914;2023-02-21T06:28:02;99701.13;;;8.12;79.96
31911;BME280;18457;52.432;16.914;2023-02-21T06:30:34;99706.05;;;8.10;79.72
31911;BME280;18457;52.432;16.914;2023-02-21T06:33:06;99711.89;;;8.13;79.64
31911;BME280;18457;52.432;16.914;2023-02-21T06:35:38;99709.52;;;8.14;79.18
31911;BME280;18457;52.432;16.914;2023-02-21T06:38:10;99718.95;;;8.11;78.42
31911;BME280;18457;52.432;16.914;2023-02-21T06:40:41;99735.43;;;8.14;78.56
31911;BME280;18457;52.432;16.914;2023-02-21T06:43:14;99739.30;;;8.18;78.83
31911;BME280;18457;52.432;16.914;2023-02-21T06:45:46;99735.74;;;8.16;78.48
31911;BME280;18457;52.432;16.914;2023-02-21T06:48:18;99744.64;;;8.13;77.99
31911;BME280;18457;52.432;16.914;2023-02-21T06:50:50;99748.59;;;8.13;77.42
31911;BME280;18457;52.432;16.914;2023-02-21T06:53:22;99760.98;;;8.14;77.00
31911;BME280;18457;52.432;16.914;2023-02-21T06:55:54;99762.64;;;8.20;76.67
31911;BME280;18457;52.432;16.914;2023-02-21T06:58:26;99760.38;;;8.25;76.83
31911;BME280;18457;52.432;16.914;2023-02-21T07:00:57;99763.79;;;8.25;76.67
31911;BME280;18457;52.432;16.914;2023-02-21T07:03:29;99770.45;;;8.24;76.75
31911;BME280;18457;52.432;16.914;2023-02-21T07:06:02;99767.47;;;8.29;77.24
31911;BME280;18457;52.432;16.914;2023-02-21T07:08:34;99775.02;;;8.29;76.86
31911;BME280;18457;52.432;16.914;2023-02-21T07:11:06;99783.08;;;8.31;76.06
31911;BME280;18457;52.432;16.914;2023-02-21T07:13:39;99790.67;;;8.29;74.84
31911;BME280;18457;52.432;16.914;2023-02-21T07:16:11;99795.52;;;8.29;74.02
31911;BME280;18457;52.432;16.914;2023-02-21T07:18:44;99793.45;;;8.33;73.75
31911;BME280;18457;52.432;16.914;2023-02-21T07:21:16;99798.53;;;8.32;73.97
31911;BME280;18457;52.432;16.914;2023-02-21T07:23:47;99803.06;;;8.30;74.29
31911;BME280;18457;52.432;16.914;2023-02-21T07:26:19;99802.08;;;8.26;74.51
31911;BME280;18457;52.432;16.914;2023-02-21T07:28:51;99803.13;;;8.27;74.97
31911;BME280;18457;52.432;16.914;2023-02-21T07:31:23;99800.06;;;8.28;75.38
31911;BME280;18457;52.432;16.914;2023-02-21T07:33:56;99803.77;;;8.30;75.32
31911;BME280;18457;52.432;16.914;2023-02-21T07:36:28;99803.94;;;8.31;75.73
31911;BME280;18457;52.432;16.914;2023-02-21T07:39:00;99812.05;;;8.31;75.44
31911;BME280;18457;52.432;16.914;2023-02-21T07:41:32;99820.48;;;8.32;75.65
31911;BME280;18457;52.432;16.914;2023-02-21T07:44:04;99822.98;;;8.32;75.84
31911;BME280;18457;52.432;16.914;2023-02-21T07:46:37;99829.05;;;8.27;75.61
31911;BME280;18457;52.432;16.914;2023-02-21T07:49:12;99823.62;;;8.28;75.75
31911;BME280;18457;52.432;16.914;2023-02-21T07:51:44;99818.06;;;8.28;75.64
31911;BME280;18457;52.432;16.914;2023-02-21T07:54:17;99828.79;;;8.31;75.64
31911;BME280;18457;52.432;16.914;2023-02-21T07:56:50;99831.93;;;8.27;75.13
31911;BME280;18457;52.432;16.914;2023-02-21T07:59:22;99825.30;;;8.26;73.53
31911;BME280;18457;52.432;16.914;2023-02-21T08:01:54;99827.24;;;8.27;73.17
31911;BME280;18457;52.432;16.914;2023-02-21T08:04:26;99830.86;;;8.27;73.18
31911;BME280;18457;52.432;16.914;2023-02-21T08:07:01;99837.64;;;8.29;73.24
31911;BME280;18457;52.432;16.914;2023-02-21T08:09:34;99850.35;;;8.31;73.03
31911;BME280;18457;52.432;16.914;2023-02-21T08:12:06;99855.33;;;8.27;72.37
31911;BME280;18457;52.432;16.914;2023-02-21T08:14:38;99846.50;;;8.27;72.52
31911;BME280;18457;52.432;16.914;2023-02-21T08:17:10;99849.34;;;8.29;72.80
31911;BME280;18457;52.432;16.914;2023-02-21T08:19:41;99851.99;;;8.31;72.95
31911;BME280;18457;52.432;16.914;2023-02-21T08:22:13;99866.23;;;8.30;72.84
31911;BME280;18457;52.432;16.914;2023-02-21T08:24:47;99863.94;;;8.28;72.96
31911;BME280;18457;52.432;16.914;2023-02-21T08:27:19;99876.73;;;8.27;72.35
31911;BME280;18457;52.432;16.914;2023-02-21T08:29:51;99873.04;;;8.23;72.03
31911;BME280;18457;52.432;16.914;2023-02-21T08:32:23;99875.97;;;8.20;72.04
31911;BME280;18457;52.432;16.914;2023-02-21T08:34:56;99875.13;;;8.26;72.30
31911;BME280;18457;52.432;16.914;2023-02-21T08:37:28;99879.02;;;8.29;71.74
31911;BME280;18457;52.432;16.914;2023-02-21T08:40:04;99879.48;;;8.33;71.75
31911;BME280;18457;52.432;16.914;2023-02-21T08:42:36;99892.34;;;8.29;70.40
31911;BME280;18457;52.432;16.914;2023-02-21T08:45:13;99890.08;;;8.26;69.56
31911;BME280;18457;52.432;16.914;2023-02-21T08:47:46;99897.27;;;8.26;69.32
31911;BME280;18457;52.432;16.914;2023-02-21T08:50:20;99899.27;;;8.25;68.97
31911;BME280;18457;52.432;16.914;2023-02-21T08:52:53;99905.19;;;8.26;68.87
31911;BME280;18457;52.432;16.914;2023-02-21T08:55:24;99898.91;;;8.25;68.97
31911;BME280;18457;52.432;16.914;2023-02-21T08:57:55;99901.77;;;8.26;68.97
31911;BME280;18457;52.432;16.914;2023-02-21T09:00:27;99904.77;;;8.28;69.07
31911;BME280;18457;52.432;16.914;2023-02-21T09:02:59;99907.88;;;8.34;69.01
31911;BME280;18457;52.432;16.914;2023-02-21T09:05:31;99912.37;;;8.35;68.38
31911;BME280;18457;52.432;16.914;2023-02-21T09:08:03;99912.76;;;8.33;68.19
31911;BME280;18457;52.432;16.914;2023-02-21T09:10:36;99907.04;;;8.32;68.31
31911;BME280;18457;52.432;16.914;2023-02-21T09:13:10;99919.13;;;8.31;68.66
31911;BME280;18457;52.432;16.914;2023-02-21T09:15:42;99929.48;;;8.25;68.84
31911;BME280;18457;52.432;16.914;2023-02-21T09:18:13;99937.77;;;8.25;68.67
31911;BME280;18457;52.432;16.914;2023-02-21T09:20:45;99940.25;;;8.27;68.88
31911;BME280;18457;52.432;16.914;2023-02-21T09:23:22;99942.35;;;8.30;68.82
31911;BME280;18457;52.432;16.914;2023-02-21T09:25:53;99939.69;;;8.36;69.35
31911;BME280;18457;52.432;16.914;2023-02-21T09:28:25;99943.07;;;8.30;68.60
31911;BME280;18457;52.432;16.914;2023-02-21T09:30:58;99952.59;;;8.30;68.87
31911;BME280;18457;52.432;16.914;2023-02-21T09:33:30;99951.95;;;8.27;68.84
31911;BME280;18457;52.432;16.914;2023-02-21T09:36:02;99958.83;;;8.24;69.28
31911;BME280;18457;52.432;16.914;2023-02-21T09:38:34;99969.08;;;8.26;69.32
31911;BME280;18457;52.432;16.914;2023-02-21T09:41:07;99968.91;;;8.23;69.73
31911;BME280;18457;52.432;16.914;2023-02-21T09:43:42;99976.39;;;8.20;69.38
31911;BME280;18457;52.432;16.914;2023-02-21T09:46:19;99969.89;;;8.20;69.77
31911;BME280;18457;52.432;16.914;2023-02-21T09:48:52;99971.17;;;8.28;69.76
31911;BME280;18457;52.432;16.914;2023-02-21T09:51:24;99975.90;;;8.27;69.80
31911;BME280;18457;52.432;16.914;2023-02-21T09:53:58;99974.05;;;8.29;69.87
31911;BME280;18457;52.432;16.914;2023-02-21T09:56:33;99976.89;;;8.30;69.89
31911;BME280;18457;52.432;16.914;2023-02-21T09:59:09;99976.91;;;8.29;69.98
31911;BME280;18457;52.432;16.914;2023-02-21T10:01:54;99976.48;;;8.23;70.06
31911;BME280;18457;52.432;16.914;2023-02-21T10:04:44;99987.17;;;8.19;70.40
31911;BME280;18457;52.432;16.914;2023-02-21T10:07:29;99988.02;;;8.23;70.84
31911;BME280;18457;52.432;16.914;2023-02-21T10:10:08;99993.48;;;8.29;70.57
31911;BME280;18457;52.432;16.914;2023-02-21T10:12:47;99994.82;;;8.24;70.81
31911;BME280;18457;52.432;16.914;2023-02-21T10:15:38;99998.39;;;8.25;70.74
31911;BME280;18457;52.432;16.914;2023-02-21T10:18:18;99998.05;;;8.25;70.79
31911;BME280;18457;52.432;16.914;2023-02-21T10:20:54;100002.86;;;8.27;70.75
31911;BME280;18457;52.432;16.914;2023-02-21T10:23:34;100001.23;;;8.19;70.48
31911;BME280;18457;52.432;16.914;2023-02-21T10:26:10;100001.66;;;8.24;70.52
31911;BME280;18457;52.432;16.914;2023-02-21T10:28:43;100007.80;;;8.32;70.26
31911;BME280;18457;52.432;16.914;2023-02-21T10:31:18;100010.05;;;8.37;70.21
31911;BME280;18457;52.432;16.914;2023-02-21T10:33:53;100012.71;;;8.38;70.14
31911;BME280;18457;52.432;16.914;2023-02-21T10:36:27;100008.38;;;8.39;69.76
31911;BME280;18457;52.432;16.914;2023-02-21T10:39:08;100015.11;;;8.43;69.91
31911;BME280;18457;52.432;16.914;2023-02-21T10:41:43;100018.36;;;8.43;69.76
31911;BME280;18457;52.432;16.914;2023-02-21T10:44:20;100023.64;;;8.40;69.64
31911;BME280;18457;52.432;16.914;2023-02-21T10:47:00;100022.51;;;8.43;69.82
31911;BME280;18457;52.432;16.914;2023-02-21T10:49:35;100022.63;;;8.46;69.63
31911;BME280;18457;52.432;16.914;2023-02-21T10:52:13;100028.77;;;8.45;69.49
31911;BME280;18457;52.432;16.914;2023-02-21T10:55:01;100031.80;;;8.46;69.55
31911;BME280;18457;52.432;16.914;2023-02-21T10:57:38;100029.33;;;8.52;69.42
31911;BME280;18457;52.432;16.914;2023-02-21T11:00:22;100038.67;;;8.45;69.14
31911;BME280;18457;52.432;16.914;2023-02-21T11:03:01;100034.51;;;8.46;69.30
31911;BME280;18457;52.432;16.914;2023-02-21T11:05:35;100030.22;;;8.45;69.28
31911;BME280;18457;52.432;16.914;2023-02-21T11:08:09;100039.27;;;8.50;69.18
31911;BME280;18457;52.432;16.914;2023-02-21T11:10:43;100041.52;;;8.47;69.08
31911;BME280;18457;52.432;16.914;2023-02-21T11:13:18;100041.42;;;8.51;69.16
31911;BME280;18457;52.432;16.914;2023-02-21T11:16:09;100043.65;;;8.55;69.37
31911;BME280;18457;52.432;16.914;2023-02-21T11:18:41;100038.65;;;8.54;68.91
31911;BME280;18457;52.432;16.914;2023-02-21T11:21:14;100043.27;;;8.56;69.06
31911;BME280;18457;52.432;16.914;2023-02-21T11:23:54;100052.05;;;8.51;68.69
31911;BME280;18457;52.432;16.914;2023-02-21T11:26:28;100050.08;;;8.50;69.07
31911;BME280;18457;52.432;16.914;2023-02-21T11:29:09;100052.30;;;8.55;68.94
31911;BME280;18457;52.432;16.914;2023-02-21T11:31:42;100049.88;;;8.58;69.00
31911;BME280;18457;52.432;16.914;2023-02-21T11:34:17;100052.46;;;8.65;68.93
31911;BME280;18457;52.432;16.914;2023-02-21T11:36:49;100056.48;;;8.61;68.55
31911;BME280;18457;52.432;16.914;2023-02-21T11:39:24;100056.52;;;8.68;68.66
31911;BME280;18457;52.432;16.914;2023-02-21T11:41:59;100052.48;;;8.64;68.37
31911;BME280;18457;52.432;16.914;2023-02-21T11:44:33;100053.65;;;8.68;68.20
31911;BME280;18457;52.432;16.914;2023-02-21T11:47:13;100056.63;;;8.63;68.15
31911;BME280;18457;52.432;16.914;2023-02-21T11:49:52;100052.84;;;8.72;70.06
31911;BME280;18457;52.432;16.914;2023-02-21T11:52:28;100055.39;;;9.24;75.92
31911;BME280;18457;52.432;16.914;2023-02-21T11:55:00;100050.72;;;9.73;76.51
31911;BME280;18457;52.432;16.914;2023-02-21T11:57:41;100058.58;;;9.89;76.55
31911;BME280;18457;52.432;16.914;2023-02-21T12:00:22;100055.42;;;9.92;71.05
31911;BME280;18457;52.432;16.914;2023-02-21T12:03:24;100059.60;;;9.50;66.54
31911;BME280;18457;52.432;16.914;2023-02-21T12:06:05;100056.47;;;9.24;66.74
31911;BME280;18457;52.432;16.914;2023-02-21T12:08:49;100059.30;;;9.04;67.17
31911;BME280;18457;52.432;16.914;2023-02-21T12:11:45;100055.65;;;9.06;67.20
31911;BME280;18457;52.432;16.914;2023-02-21T12:14:30;100059.04;;;8.99;66.48
31911;BME280;18457;52.432;16.914;2023-02-21T12:17:14;100052.64;;;8.89;66.21
31911;BME280;18457;52.432;16.914;2023-02-21T12:22:58;100056.42;;;8.96;66.28
31911;BME280;18457;52.432;16.914;2023-02-21T12:25:39;100063.93;;;8.98;66.21
31911;BME280;18457;52.432;16.914;2023-02-21T12:28:22;100058.73;;;8.97;66.19
31911;BME280;18457;52.432;16.914;2023-02-21T12:31:10;100057.67;;;8.97;66.35
31911;BME280;18457;52.432;16.914;2023-02-21T12:33:54;100062.41;;;9.02;66.49
31911;BME280;18457;52.432;16.914;2023-02-21T12:36:46;100058.04;;;9.04;66.52
31911;BME280;18457;52.432;16.914;2023-02-21T12:39:34;100058.13;;;9.08;66.65
31911;BME280;18457;52.432;16.914;2023-02-21T12:42:38;100064.60;;;9.01;66.61
31911;BME280;18457;52.432;16.914;2023-02-21T12:45:31;100068.57;;;9.00;66.51
31911;BME280;18457;52.432;16.914;2023-02-21T12:48:11;100066.89;;;9.02;66.80
31911;BME280;18457;52.432;16.914;2023-02-21T12:50:54;100073.46;;;8.99;66.38
31911;BME280;18457;52.432;16.914;2023-02-21T12:53:32;100080.24;;;8.94;66.41
31911;BME280;18457;52.432;16.914;2023-02-21T12:56:11;100073.16;;;8.97;66.56
31911;BME280;18457;52.432;16.914;2023-02-21T12:58:51;100072.15;;;8.94;66.62
31911;BME280;18457;52.432;16.914;2023-02-21T13:01:27;100072.49;;;8.86;66.57
31911;BME280;18457;52.432;16.914;2023-02-21T13:04:11;100072.70;;;8.86;66.63
31911;BME280;18457;52.432;16.914;2023-02-21T13:06:49;100080.46;;;8.85;66.76
31911;BME280;18457;52.432;16.914;2023-02-21T13:09:30;100076.30;;;8.86;66.69
31911;BME280;18457;52.432;16.914;2023-02-21T13:12:08;100078.02;;;8.90;66.91
31911;BME280;18457;52.432;16.914;2023-02-21T13:14:42;100081.33;;;8.94;66.80
31911;BME280;18457;52.432;16.914;2023-02-21T13:17:18;100085.30;;;8.86;66.37
31911;BME280;18457;52.432;16.914;2023-02-21T13:20:01;100091.71;;;8.81;66.15
31911;BME280;18457;52.432;16.914;2023-02-21T13:26:31;100097.01;;;8.78;66.47
31911;BME280;18457;52.432;16.914;2023-02-21T13:29:15;100100.86;;;8.66;66.69
31911;BME280;18457;52.432;16.914;2023-02-21T13:31:54;100095.17;;;8.62;66.84
31911;BME280;18457;52.432;16.914;2023-02-21T13:34:31;100097.38;;;8.60;66.98
31911;BME280;18457;52.432;16.914;2023-02-21T13:37:17;100103.11;;;8.61;66.93
31911;BME280;18457;52.432;16.914;2023-02-21T13:39:52;100095.92;;;8.61;67.10
31911;BME280;18457;52.432;16.914;2023-02-21T13:42:29;100093.06;;;8.68;67.22
31911;BME280;18457;52.432;16.914;2023-02-21T13:45:16;100092.98;;;8.72;67.35
31911;BME280;18457;52.432;16.914;2023-02-21T13:48:18;100102.40;;;8.69;66.95
31911;BME280;18457;52.432;16.914;2023-02-21T13:50:52;100107.71;;;8.66;66.93
31911;BME280;18457;52.432;16.914;2023-02-21T13:53:28;100104.73;;;8.70;66.97
31911;BME280;18457;52.432;16.914;2023-02-21T13:56:19;100100.92;;;8.71;67.39
31911;BME280;18457;52.432;16.914;2023-02-21T13:58:51;100105.77;;;8.72;67.19
31911;BME280;18457;52.432;16.914;2023-02-21T14:01:42;100111.48;;;8.66;67.16
31911;BME280;18457;52.432;16.914;2023-02-21T14:04:59;100107.71;;;8.66;67.57
31911;BME280;18457;52.432;16.914;2023-02-21T14:07:47;100108.87;;;8.70;67.50